sensor_id;sensor_type;location;lat;lon;timestamp;temperature;humidity
9167;DHT22;4618;48.818;9.088;2023-04-06T07:12:34;3.00;96.40
9167;DHT22;4618;48.818;9.088;2023-04-06T07:15:00;3.20;99.90
9167;DHT22;4618;48.818;9.088;2023-04-06T07:17:26;3.40;99.90
9167;DHT22;4618;48.818;9.088;2023-04-06T07:19:52;3.50;99.90
9167;DHT22;4618;48.818;9.088;2023-04-06T07:22:17;3.60;25.70
9167;DHT22;4618;48.818;9.088;2023-04-06T07:24:43;3.80;1.00
9167;DHT22;4618;48.818;9.088;2023-04-06T07:27:09;3.90;1.00
9167;DHT22;4618;48.818;9.088;2023-04-06T07:29:34;4.00;1.00
9167;DHT22;4618;48.818;9.088;2023-04-06T07:32:00;4.10;1.00
9167;DHT22;4618;48.818;9.088;2023-04-06T07:34:26;4.30;1.00
9167;DHT22;4618;48.818;9.088;2023-04-06T07:36:51;4.50;1.00
9167;DHT22;4618;48.818;9.088;2023-04-06T07:39:19;4.60;1.00
9167;DHT22;4618;48.818;9.088;2023-04-06T07:41:45;4.80;1.00
9167;DHT22;4618;48.818;9.088;2023-04-06T07:44:10;5.00;99.90
9167;DHT22;4618;48.818;9.088;2023-04-06T07:46:36;5.10;99.90
9167;DHT22;4618;48.818;9.088;2023-04-06T07:49:02;5.30;99.90
9167;DHT22;4618;48.818;9.088;2023-04-06T07:51:27;5.50;99.90
9167;DHT22;4618;48.818;9.088;2023-04-06T07:53:53;5.60;99.90
9167;DHT22;4618;48.818;9.088;2023-04-06T07:56:19;5.80;99.90
9167;DHT22;4618;48.818;9.088;2023-04-06T07:58:46;6.00;99.90
9167;DHT22;4618;48.818;9.088;2023-04-06T08:01:11;6.20;99.90
9167;DHT22;4618;48.818;9.088;2023-04-06T08:03:37;6.50;99.90
9167;DHT22;4618;48.818;9.088;2023-04-06T08:06:03;6.80;99.90
9167;DHT22;4618;48.818;9.088;2023-04-06T08:08:29;7.40;99.90
9167;DHT22;4618;48.818;9.088;2023-04-06T08:10:56;8.10;99.90
9167;DHT22;4618;48.818;9.088;2023-04-06T08:13:21;9.10;99.90
9167;DHT22;4618;48.818;9.088;2023-04-06T08:15:47;10.00;99.90
9167;DHT22;4618;48.818;9.088;2023-04-06T08:18:12;10.80;99.90
9167;DHT22;4618;48.818;9.088;2023-04-06T08:20:39;11.70;99.90
9167;DHT22;4618;48.818;9.088;2023-04-06T08:23:05;12.70;1.00
9167;DHT22;4618;48.818;9.088;2023-04-06T08:25:33;13.60;1.00
9167;DHT22;4618;48.818;9.088;2023-04-06T08:27:58;14.30;1.00
9167;DHT22;4618;48.818;9.088;2023-04-06T08:30:24;15.00;1.00
9167;DHT22;4618;48.818;9.088;2023-04-06T08:32:50;15.60;99.90
9167;DHT22;4618;48.818;9.088;2023-04-06T08:35:16;16.00;99.90
9167;DHT22;4618;48.818;9.088;2023-04-06T08:37:41;16.40;99.90
9167;DHT22;4618;48.818;9.088;2023-04-06T08:40:07;16.40;99.90
9167;DHT22;4618;48.818;9.088;2023-04-06T08:42:39;16.80;99.90
9167;DHT22;4618;48.818;9.088;2023-04-06T08:45:05;17.10;99.90
9167;DHT22;4618;48.818;9.088;2023-04-06T08:47:31;17.00;99.90
9167;DHT22;4618;48.818;9.088;2023-04-06T08:49:58;17.20;99.90
9167;DHT22;4618;48.818;9.088;2023-04-06T08:52:26;16.70;99.90
9167;DHT22;4618;48.818;9.088;2023-04-06T08:54:52;16.80;99.90
9167;DHT22;4618;48.818;9.088;2023-04-06T08:57:19;17.30;99.90
9167;DHT22;4618;48.818;9.088;2023-04-06T08:59:45;17.20;99.90
9167;DHT22;4618;48.818;9.088;2023-04-06T09:02:16;18.00;99.90
9167;DHT22;4618;48.818;9.088;2023-04-06T09:04:43;18.20;99.90
9167;DHT22;4618;48.818;9.088;2023-04-06T09:07:09;18.00;99.90
9167;DHT22;4618;48.818;9.088;2023-04-06T09:09:35;18.70;99.90
9167;DHT22;4618;48.818;9.088;2023-04-06T09:12:02;19.70;99.90
9167;DHT22;4618;48.818;9.088;2023-04-06T09:14:38;19.60;99.90
9167;DHT22;4618;48.818;9.088;2023-04-06T09:17:04;18.60;99.90
9167;DHT22;4618;48.818;9.088;2023-04-06T09:19:30;18.20;99.90
9167;DHT22;4618;48.818;9.088;2023-04-06T09:22:06;19.00;99.90
9167;DHT22;4618;48.818;9.088;2023-04-06T09:24:51;19.70;99.90
9167;DHT22;4618;48.818;9.088;2023-04-06T09:27:18;20.00;99.90
9167;DHT22;4618;48.818;9.088;2023-04-06T09:30:11;19.30;99.90
9167;DHT22;4618;48.818;9.088;2023-04-06T09:32:54;19.00;99.90
9167;DHT22;4618;48.818;9.088;2023-04-06T09:35:21;19.40;99.90
9167;DHT22;4618;48.818;9.088;2023-04-06T09:37:48;19.10;99.90
9167;DHT22;4618;48.818;9.088;2023-04-06T09:40:14;19.40;99.90
9167;DHT22;4618;48.818;9.088;2023-04-06T09:42:45;19.60;99.90
9167;DHT22;4618;48.818;9.088;2023-04-06T09:45:11;20.20;99.90
9167;DHT22;4618;48.818;9.088;2023-04-06T09:47:39;20.50;99.90
9167;DHT22;4618;48.818;9.088;2023-04-06T09:50:06;20.80;99.90
9167;DHT22;4618;48.818;9.088;2023-04-06T09:52:37;20.10;99.90
9167;DHT22;4618;48.818;9.088;2023-04-06T09:55:05;20.40;99.90
9167;DHT22;4618;48.818;9.088;2023-04-06T09:58:00;20.50;99.90
9167;DHT22;4618;48.818;9.088;2023-04-06T10:00:29;20.60;99.90
9167;DHT22;4618;48.818;9.088;2023-04-06T10:03:14;20.40;99.90
9167;DHT22;4618;48.818;9.088;2023-04-06T10:05:54;20.70;99.90
9167;DHT22;4618;48.818;9.088;2023-04-06T10:08:23;20.40;99.90
9167;DHT22;4618;48.818;9.088;2023-04-06T10:10:50;20.80;99.90
9167;DHT22;4618;48.818;9.088;2023-04-06T10:13:16;21.10;99.90
9167;DHT22;4618;48.818;9.088;2023-04-06T10:15:44;20.50;99.90
9167;DHT22;4618;48.818;9.088;2023-04-06T10:18:10;20.70;99.90
9167;DHT22;4618;48.818;9.088;2023-04-06T10:20:43;20.90;99.90
9167;DHT22;4618;48.818;9.088;2023-04-06T10:23:29;21.40;99.90
9167;DHT22;4618;48.818;9.088;2023-04-06T10:25:58;21.60;99.90
9167;DHT22;4618;48.818;9.088;2023-04-06T10:28:24;21.80;99.90
9167;DHT22;4618;48.818;9.088;2023-04-06T10:30:57;20.70;99.90
9167;DHT22;4618;48.818;9.088;2023-04-06T10:33:23;20.60;99.90
9167;DHT22;4618;48.818;9.088;2023-04-06T10:35:49;21.70;99.90
9167;DHT22;4618;48.818;9.088;2023-04-06T10:38:15;22.10;99.90
9167;DHT22;4618;48.818;9.088;2023-04-06T10:40:45;22.10;99.90
9167;DHT22;4618;48.818;9.088;2023-04-06T10:43:22;22.90;99.90
9167;DHT22;4618;48.818;9.088;2023-04-06T10:45:55;23.20;99.90
9167;DHT22;4618;48.818;9.088;2023-04-06T10:48:21;23.60;99.90
9167;DHT22;4618;48.818;9.088;2023-04-06T10:50:51;23.00;99.90
9167;DHT22;4618;48.818;9.088;2023-04-06T10:53:27;23.50;99.90
9167;DHT22;4618;48.818;9.088;2023-04-06T10:55:56;23.10;99.90
9167;DHT22;4618;48.818;9.088;2023-04-06T10:58:28;23.40;99.90
9167;DHT22;4618;48.818;9.088;2023-04-06T11:00:54;23.40;99.90
9167;DHT22;4618;48.818;9.088;2023-04-06T11:03:25;22.70;99.90
9167;DHT22;4618;48.818;9.088;2023-04-06T11:05:51;23.30;99.90
9167;DHT22;4618;48.818;9.088;2023-04-06T11:08:24;23.50;99.90
9167;DHT22;4618;48.818;9.088;2023-04-06T11:10:50;23.60;99.90
9167;DHT22;4618;48.818;9.088;2023-04-06T11:13:15;24.20;99.90
9167;DHT22;4618;48.818;9.088;2023-04-06T11:15:41;24.10;99.90
9167;DHT22;4618;48.818;9.088;2023-04-06T11:18:06;24.40;99.90
9167;DHT22;4618;48.818;9.088;2023-04-06T11:20:32;24.30;99.90
9167;DHT22;4618;48.818;9.088;2023-04-06T11:22:57;23.70;99.90
9167;DHT22;4618;48.818;9.088;2023-04-06T11:25:24;24.00;99.90
9167;DHT22;4618;48.818;9.088;2023-04-06T11:27:51;23.30;99.90
9167;DHT22;4618;48.818;9.088;2023-04-06T11:30:18;23.00;99.90
9167;DHT22;4618;48.818;9.088;2023-04-06T11:32:45;22.90;99.90
9167;DHT22;4618;48.818;9.088;2023-04-06T11:35:14;23.20;99.90
9167;DHT22;4618;48.818;9.088;2023-04-06T11:37:44;22.80;99.90
9167;DHT22;4618;48.818;9.088;2023-04-06T11:40:11;22.20;99.90
9167;DHT22;4618;48.818;9.088;2023-04-06T11:42:36;22.40;99.90
9167;DHT22;4618;48.818;9.088;2023-04-06T11:45:02;22.30;99.90
9167;DHT22;4618;48.818;9.088;2023-04-06T11:47:29;22.70;99.90
9167;DHT22;4618;48.818;9.088;2023-04-06T11:49:56;23.20;99.90
9167;DHT22;4618;48.818;9.088;2023-04-06T11:52:30;23.60;99.90
9167;DHT22;4618;48.818;9.088;2023-04-06T11:54:56;24.20;99.90
9167;DHT22;4618;48.818;9.088;2023-04-06T11:57:23;24.60;99.90
9167;DHT22;4618;48.818;9.088;2023-04-06T11:59:51;24.90;99.90
9167;DHT22;4618;48.818;9.088;2023-04-06T12:02:17;24.30;99.90
9167;DHT22;4618;48.818;9.088;2023-04-06T12:04:43;23.60;99.90
9167;DHT22;4618;48.818;9.088;2023-04-06T12:07:09;23.60;99.90
9167;DHT22;4618;48.818;9.088;2023-04-06T12:09:34;22.40;99.90
9167;DHT22;4618;48.818;9.088;2023-04-06T12:12:01;22.40;99.90
9167;DHT22;4618;48.818;9.088;2023-04-06T12:14:27;22.80;99.90
9167;DHT22;4618;48.818;9.088;2023-04-06T12:16:52;23.00;99.90
9167;DHT22;4618;48.818;9.088;2023-04-06T12:19:18;23.60;99.90
9167;DHT22;4618;48.818;9.088;2023-04-06T12:21:44;24.80;99.90
9167;DHT22;4618;48.818;9.088;2023-04-06T12:24:09;25.60;99.90
9167;DHT22;4618;48.818;9.088;2023-04-06T12:26:35;23.50;99.90
9167;DHT22;4618;48.818;9.088;2023-04-06T12:29:02;21.60;99.90
9167;DHT22;4618;48.818;9.088;2023-04-06T12:31:32;22.50;99.90
9167;DHT22;4618;48.818;9.088;2023-04-06T12:33:59;23.20;99.90
9167;DHT22;4618;48.818;9.088;2023-04-06T12:36:25;22.90;99.90
9167;DHT22;4618;48.818;9.088;2023-04-06T12:38:51;23.30;99.90
9167;DHT22;4618;48.818;9.088;2023-04-06T12:41:17;23.10;99.90
9167;DHT22;4618;48.818;9.088;2023-04-06T12:43:43;23.80;99.90
9167;DHT22;4618;48.818;9.088;2023-04-06T12:46:09;24.00;99.90
9167;DHT22;4618;48.818;9.088;2023-04-06T12:48:35;24.70;99.90
9167;DHT22;4618;48.818;9.088;2023-04-06T12:51:03;24.50;99.90
9167;DHT22;4618;48.818;9.088;2023-04-06T12:53:29;23.80;99.90
9167;DHT22;4618;48.818;9.088;2023-04-06T12:55:55;23.70;99.90
9167;DHT22;4618;48.818;9.088;2023-04-06T12:58:22;22.20;99.90
9167;DHT22;4618;48.818;9.088;2023-04-06T13:00:49;21.70;99.90
9167;DHT22;4618;48.818;9.088;2023-04-06T13:03:16;22.60;99.90
9167;DHT22;4618;48.818;9.088;2023-04-06T13:05:51;22.30;99.90
9167;DHT22;4618;48.818;9.088;2023-04-06T13:08:18;23.10;99.90
9167;DHT22;4618;48.818;9.088;2023-04-06T13:10:47;24.10;99.90
9167;DHT22;4618;48.818;9.088;2023-04-06T13:13:16;24.60;99.90
9167;DHT22;4618;48.818;9.088;2023-04-06T13:15:41;23.80;99.90
9167;DHT22;4618;48.818;9.088;2023-04-06T13:18:08;23.90;99.90
9167;DHT22;4618;48.818;9.088;2023-04-06T13:20:33;24.10;99.90
9167;DHT22;4618;48.818;9.088;2023-04-06T13:22:59;24.30;99.90
9167;DHT22;4618;48.818;9.088;2023-04-06T13:25:25;25.20;99.90
9167;DHT22;4618;48.818;9.088;2023-04-06T13:27:50;25.90;99.90
9167;DHT22;4618;48.818;9.088;2023-04-06T13:30:16;26.10;99.90
9167;DHT22;4618;48.818;9.088;2023-04-06T13:32:42;26.20;99.90
9167;DHT22;4618;48.818;9.088;2023-04-06T13:35:08;26.50;99.90
9167;DHT22;4618;48.818;9.088;2023-04-06T13:37:34;27.40;99.90
9167;DHT22;4618;48.818;9.088;2023-04-06T13:40:02;27.20;99.90
9167;DHT22;4618;48.818;9.088;2023-04-06T13:42:28;26.30;99.90
9167;DHT22;4618;48.818;9.088;2023-04-06T13:44:54;24.90;99.90
9167;DHT22;4618;48.818;9.088;2023-04-06T13:47:19;23.90;99.90
9167;DHT22;4618;48.818;9.088;2023-04-06T13:49:46;21.60;99.90
9167;DHT22;4618;48.818;9.088;2023-04-06T13:52:12;22.10;99.90
9167;DHT22;4618;48.818;9.088;2023-04-06T13:54:38;23.70;99.90
9167;DHT22;4618;48.818;9.088;2023-04-06T13:57:03;25.20;99.90
9167;DHT22;4618;48.818;9.088;2023-04-06T13:59:34;25.90;99.90
9167;DHT22;4618;48.818;9.088;2023-04-06T14:02:00;25.30;99.90
9167;DHT22;4618;48.818;9.088;2023-04-06T14:04:25;24.30;99.90
9167;DHT22;4618;48.818;9.088;2023-04-06T14:06:51;24.50;99.90
9167;DHT22;4618;48.818;9.088;2023-04-06T14:09:16;23.50;99.90
9167;DHT22;4618;48.818;9.088;2023-04-06T14:11:42;22.00;99.90
9167;DHT22;4618;48.818;9.088;2023-04-06T14:14:07;21.60;99.90
9167;DHT22;4618;48.818;9.088;2023-04-06T14:16:33;21.20;99.90
9167;DHT22;4618;48.818;9.088;2023-04-06T14:18:58;21.10;99.90
9167;DHT22;4618;48.818;9.088;2023-04-06T14:21:24;21.70;99.90
9167;DHT22;4618;48.818;9.088;2023-04-06T14:23:50;22.90;99.90
9167;DHT22;4618;48.818;9.088;2023-04-06T14:26:16;22.80;99.90
9167;DHT22;4618;48.818;9.088;2023-04-06T14:28:42;23.10;99.90
9167;DHT22;4618;48.818;9.088;2023-04-06T14:31:12;23.20;99.90
9167;DHT22;4618;48.818;9.088;2023-04-06T14:33:38;22.70;99.90
9167;DHT22;4618;48.818;9.088;2023-04-06T14:36:05;22.40;99.90
9167;DHT22;4618;48.818;9.088;2023-04-06T14:38:34;22.10;99.90
9167;DHT22;4618;48.818;9.088;2023-04-06T14:41:00;22.00;99.90
9167;DHT22;4618;48.818;9.088;2023-04-06T14:43:26;21.00;99.90
9167;DHT22;4618;48.818;9.088;2023-04-06T14:45:51;20.70;99.90
9167;DHT22;4618;48.818;9.088;2023-04-06T14:48:17;20.60;99.90
9167;DHT22;4618;48.818;9.088;2023-04-06T14:50:56;20.00;99.90
9167;DHT22;4618;48.818;9.088;2023-04-06T14:53:23;19.60;99.90
9167;DHT22;4618;48.818;9.088;2023-04-06T14:55:49;20.00;99.90
9167;DHT22;4618;48.818;9.088;2023-04-06T14:58:17;19.70;99.90
9167;DHT22;4618;48.818;9.088;2023-04-06T15:00:42;19.40;99.90
9167;DHT22;4618;48.818;9.088;2023-04-06T15:03:08;18.90;99.90
9167;DHT22;4618;48.818;9.088;2023-04-06T15:05:34;17.80;99.90
9167;DHT22;4618;48.818;9.088;2023-04-06T15:07:59;17.20;99.90
9167;DHT22;4618;48.818;9.088;2023-04-06T15:10:25;17.20;99.90
9167;DHT22;4618;48.818;9.088;2023-04-06T15:12:51;17.10;99.90
9167;DHT22;4618;48.818;9.088;2023-04-06T15:15:16;17.00;99.90
9167;DHT22;4618;48.818;9.088;2023-04-06T15:17:42;16.80;99.90
9167;DHT22;4618;48.818;9.088;2023-04-06T15:20:08;16.70;99.90
9167;DHT22;4618;48.818;9.088;2023-04-06T15:22:33;16.40;99.90
9167;DHT22;4618;48.818;9.088;2023-04-06T15:24:59;16.10;99.90
9167;DHT22;4618;48.818;9.088;2023-04-06T15:27:24;15.90;99.90
9167;DHT22;4618;48.818;9.088;2023-04-06T15:29:50;15.70;99.90
9167;DHT22;4618;48.818;9.088;2023-04-06T15:32:16;15.50;99.90
9167;DHT22;4618;48.818;9.088;2023-04-06T15:34:41;15.30;99.90
9167;DHT22;4618;48.818;9.088;2023-04-06T15:37:07;15.10;99.90
9167;DHT22;4618;48.818;9.088;2023-04-06T15:39:33;15.10;99.90
9167;DHT22;4618;48.818;9.088;2023-04-06T15:41:59;15.20;99.90
9167;DHT22;4618;48.818;9.088;2023-04-06T15:44:25;15.20;99.90
9167;DHT22;4618;48.818;9.088;2023-04-06T15:46:51;15.10;99.90
9167;DHT22;4618;48.818;9.088;2023-04-06T15:49:18;14.90;99.90
9167;DHT22;4618;48.818;9.088;2023-04-06T15:51:47;14.80;99.90
9167;DHT22;4618;48.818;9.088;2023-04-06T15:54:13;14.80;99.90
9167;DHT22;4618;48.818;9.088;2023-04-06T15:56:38;14.60;99.90
9167;DHT22;4618;48.818;9.088;2023-04-06T15:59:04;14.40;99.90
9167;DHT22;4618;48.818;9.088;2023-04-06T16:01:29;14.40;99.90
9167;DHT22;4618;48.818;9.088;2023-04-06T16:03:55;14.40;99.90
9167;DHT22;4618;48.818;9.088;2023-04-06T16:06:21;14.20;99.90
9167;DHT22;4618;48.818;9.088;2023-04-06T16:08:47;14.10;99.90
9167;DHT22;4618;48.818;9.088;2023-04-06T16:11:12;14.10;99.90
9167;DHT22;4618;48.818;9.088;2023-04-06T16:13:38;14.00;99.90
9167;DHT22;4618;48.818;9.088;2023-04-06T16:16:05;13.80;99.90
9167;DHT22;4618;48.818;9.088;2023-04-06T16:18:31;13.60;99.90
9167;DHT22;4618;48.818;9.088;2023-04-06T16:20:56;13.50;99.90
9167;DHT22;4618;48.818;9.088;2023-04-06T16:23:22;13.40;99.90
9167;DHT22;4618;48.818;9.088;2023-04-06T16:25:48;13.30;99.90
9167;DHT22;4618;48.818;9.088;2023-04-06T16:28:15;13.20;99.90
9167;DHT22;4618;48.818;9.088;2023-04-06T16:30:40;13.10;99.90
9167;DHT22;4618;48.818;9.088;2023-04-06T16:33:06;13.10;99.90
9167;DHT22;4618;48.818;9.088;2023-04-06T16:35:32;12.90;99.90
9167;DHT22;4618;48.818;9.088;2023-04-06T16:37:58;12.80;99.90
9167;DHT22;4618;48.818;9.088;2023-04-06T16:40:25;12.70;99.90
9167;DHT22;4618;48.818;9.088;2023-04-06T16:42:51;12.60;99.90
9167;DHT22;4618;48.818;9.088;2023-04-06T16:45:17;12.50;99.90
9167;DHT22;4618;48.818;9.088;2023-04-06T16:47:42;12.40;99.90
9167;DHT22;4618;48.818;9.088;2023-04-06T16:50:08;12.40;99.90
9167;DHT22;4618;48.818;9.088;2023-04-06T16:52:34;12.30;99.90
9167;DHT22;4618;48.818;9.088;2023-04-06T16:55:00;12.20;99.90
9167;DHT22;4618;48.818;9.088;2023-04-06T16:57:26;12.00;99.90
9167;DHT22;4618;48.818;9.088;2023-04-06T16:59:55;11.90;99.90
9167;DHT22;4618;48.818;9.088;2023-04-06T17:02:21;11.80;99.90
9167;DHT22;4618;48.818;9.088;2023-04-06T17:04:47;11.70;99.90
9167;DHT22;4618;48.818;9.088;2023-04-06T17:07:12;11.70;99.90
9167;DHT22;4618;48.818;9.088;2023-04-06T17:09:38;11.70;99.90
9167;DHT22;4618;48.818;9.088;2023-04-06T17:12:04;11.70;99.90
9167;DHT22;4618;48.818;9.088;2023-04-06T17:14:29;11.60;99.90
9167;DHT22;4618;48.818;9.088;2023-04-06T17:16:55;11.50;99.90
9167;DHT22;4618;48.818;9.088;2023-04-06T17:19:21;11.50;99.90
9167;DHT22;4618;48.818;9.088;2023-04-06T17:21:46;11.50;99.90
9167;DHT22;4618;48.818;9.088;2023-04-06T17:24:12;11.40;99.90
9167;DHT22;4618;48.818;9.088;2023-04-06T17:26:37;11.40;99.90
9167;DHT22;4618;48.818;9.088;2023-04-06T17:29:04;11.30;1.00
9167;DHT22;4618;48.818;9.088;2023-04-06T17:31:30;11.30;99.90
9167;DHT22;4618;48.818;9.088;2023-04-06T17:33:56;11.20;1.00
9167;DHT22;4618;48.818;9.088;2023-04-06T17:36:22;11.20;1.00
9167;DHT22;4618;48.818;9.088;2023-04-06T17:38:48;11.10;1.00
9167;DHT22;4618;48.818;9.088;2023-04-06T17:41:14;11.20;1.00
9167;DHT22;4618;48.818;9.088;2023-04-06T17:43:40;11.10;1.00
9167;DHT22;4618;48.818;9.088;2023-04-06T17:46:06;11.10;1.00
9167;DHT22;4618;48.818;9.088;2023-04-06T17:48:32;11.20;1.00
9167;DHT22;4618;48.818;9.088;2023-04-06T17:50:58;11.10;1.00
9167;DHT22;4618;48.818;9.088;2023-04-06T17:53:23;11.10;1.00
9167;DHT22;4618;48.818;9.088;2023-04-06T17:55:49;11.00;1.00
9167;DHT22;4618;48.818;9.088;2023-04-06T17:58:14;11.00;1.00
9167;DHT22;4618;48.818;9.088;2023-04-06T18:00:40;10.90;1.00
9167;DHT22;4618;48.818;9.088;2023-04-06T18:03:05;10.80;1.00
9167;DHT22;4618;48.818;9.088;2023-04-06T18:05:31;10.70;1.00
9167;DHT22;4618;48.818;9.088;2023-04-06T18:07:57;10.70;1.00
9167;DHT22;4618;48.818;9.088;2023-04-06T18:10:23;10.60;1.00
9167;DHT22;4618;48.818;9.088;2023-04-06T18:12:48;10.60;1.00
9167;DHT22;4618;48.818;9.088;2023-04-06T18:15:15;10.60;1.00
9167;DHT22;4618;48.818;9.088;2023-04-06T18:17:44;10.50;1.00
9167;DHT22;4618;48.818;9.088;2023-04-06T18:20:10;10.50;1.00
9167;DHT22;4618;48.818;9.088;2023-04-06T18:22:36;10.40;1.00
9167;DHT22;4618;48.818;9.088;2023-04-06T18:25:03;10.40;1.00
9167;DHT22;4618;48.818;9.088;2023-04-06T18:27:28;10.30;1.00
9167;DHT22;4618;48.818;9.088;2023-04-06T18:29:54;10.30;1.00
9167;DHT22;4618;48.818;9.088;2023-04-06T18:32:20;10.20;1.00
9167;DHT22;4618;48.818;9.088;2023-04-06T18:34:45;10.20;1.00
9167;DHT22;4618;48.818;9.088;2023-04-06T18:37:11;10.20;1.00
9167;DHT22;4618;48.818;9.088;2023-04-06T18:39:37;10.10;1.00
9167;DHT22;4618;48.818;9.088;2023-04-06T18:42:03;10.10;1.00
9167;DHT22;4618;48.818;9.088;2023-04-06T18:44:29;10.10;1.00
9167;DHT22;4618;48.818;9.088;2023-04-06T18:46:58;10.00;1.00
9167;DHT22;4618;48.818;9.088;2023-04-06T18:49:24;10.00;1.00
9167;DHT22;4618;48.818;9.088;2023-04-06T18:51:49;9.90;1.00
9167;DHT22;4618;48.818;9.088;2023-04-06T18:54:15;9.90;1.00
9167;DHT22;4618;48.818;9.088;2023-04-06T18:56:41;9.90;1.00
9167;DHT22;4618;48.818;9.088;2023-04-06T18:59:07;9.80;1.00
9167;DHT22;4618;48.818;9.088;2023-04-06T19:01:33;9.80;1.00
9167;DHT22;4618;48.818;9.088;2023-04-06T19:03:59;9.80;1.00
9167;DHT22;4618;48.818;9.088;2023-04-06T19:06:24;9.70;1.00
9167;DHT22;4618;48.818;9.088;2023-04-06T19:08:53;9.80;1.00
9167;DHT22;4618;48.818;9.088;2023-04-06T19:11:19;10.20;1.00
9167;DHT22;4618;48.818;9.088;2023-04-06T19:13:47;10.20;1.00
9167;DHT22;4618;48.818;9.088;2023-04-06T19:16:16;10.10;1.00
9167;DHT22;4618;48.818;9.088;2023-04-06T19:18:43;10.00;1.00
9167;DHT22;4618;48.818;9.088;2023-04-06T19:21:20;9.90;1.00
9167;DHT22;4618;48.818;9.088;2023-04-06T19:23:47;9.80;1.00
9167;DHT22;4618;48.818;9.088;2023-04-06T19:26:17;9.70;1.00
9167;DHT22;4618;48.818;9.088;2023-04-06T19:28:44;9.90;1.00
9167;DHT22;4618;48.818;9.088;2023-04-06T19:31:11;10.00;1.00
9167;DHT22;4618;48.818;9.088;2023-04-06T19:33:37;10.20;1.00
9167;DHT22;4618;48.818;9.088;2023-04-06T19:36:04;10.20;1.00
9167;DHT22;4618;48.818;9.088;2023-04-06T19:38:30;10.10;1.00
9167;DHT22;4618;48.818;9.088;2023-04-06T19:40:57;10.10;1.00
9167;DHT22;4618;48.818;9.088;2023-04-06T19:43:23;10.10;1.00
9167;DHT22;4618;48.818;9.088;2023-04-06T19:45:49;10.00;1.00
9167;DHT22;4618;48.818;9.088;2023-04-06T19:48:14;10.00;1.00
9167;DHT22;4618;48.818;9.088;2023-04-06T19:50:40;10.00;1.00
9167;DHT22;4618;48.818;9.088;2023-04-06T19:53:05;9.90;1.00
9167;DHT22;4618;48.818;9.088;2023-04-06T19:55:33;9.90;1.00
9167;DHT22;4618;48.818;9.088;2023-04-06T19:57:59;9.70;1.00
9167;DHT22;4618;48.818;9.088;2023-04-06T20:00:25;9.80;1.00
9167;DHT22;4618;48.818;9.088;2023-04-06T20:02:50;9.70;1.00
9167;DHT22;4618;48.818;9.088;2023-04-06T20:05:16;9.70;1.00
9167;DHT22;4618;48.818;9.088;2023-04-06T20:07:41;9.70;1.00
9167;DHT22;4618;48.818;9.088;2023-04-06T20:10:07;9.60;1.00
9167;DHT22;4618;48.818;9.088;2023-04-06T20:12:33;9.60;1.00
9167;DHT22;4618;48.818;9.088;2023-04-06T20:14:59;9.50;1.00
9167;DHT22;4618;48.818;9.088;2023-04-06T20:17:24;9.40;1.00
9167;DHT22;4618;48.818;9.088;2023-04-06T20:19:50;9.30;1.00
9167;DHT22;4618;48.818;9.088;2023-04-06T20:22:18;9.40;1.00
9167;DHT22;4618;48.818;9.088;2023-04-06T20:24:43;9.30;1.00
9167;DHT22;4618;48.818;9.088;2023-04-06T20:27:09;9.30;1.00
9167;DHT22;4618;48.818;9.088;2023-04-06T20:29:35;9.30;1.00
9167;DHT22;4618;48.818;9.088;2023-04-06T20:32:00;9.20;1.00
9167;DHT22;4618;48.818;9.088;2023-04-06T20:34:26;9.30;1.00
9167;DHT22;4618;48.818;9.088;2023-04-06T20:36:56;9.10;1.00
9167;DHT22;4618;48.818;9.088;2023-04-06T20:39:23;9.10;1.00
9167;DHT22;4618;48.818;9.088;2023-04-06T20:41:50;9.10;1.00
9167;DHT22;4618;48.818;9.088;2023-04-06T20:44:17;9.10;1.00
9167;DHT22;4618;48.818;9.088;2023-04-06T20:46:43;9.10;1.00
9167;DHT22;4618;48.818;9.088;2023-04-06T20:49:11;9.00;1.00
9167;DHT22;4618;48.818;9.088;2023-04-06T20:51:36;9.00;1.00
9167;DHT22;4618;48.818;9.088;2023-04-06T20:54:03;9.00;1.00
9167;DHT22;4618;48.818;9.088;2023-04-06T20:56:28;8.80;1.00
9167;DHT22;4618;48.818;9.088;2023-04-06T20:58:56;8.80;1.00
9167;DHT22;4618;48.818;9.088;2023-04-06T21:01:22;8.80;1.00
9167;DHT22;4618;48.818;9.088;2023-04-06T21:03:48;8.70;1.00
9167;DHT22;4618;48.818;9.088;2023-04-06T21:06:14;8.60;1.00
9167;DHT22;4618;48.818;9.088;2023-04-06T21:08:40;8.70;1.00
9167;DHT22;4618;48.818;9.088;2023-04-06T21:11:05;8.70;1.00
9167;DHT22;4618;48.818;9.088;2023-04-06T21:13:31;8.60;1.00
9167;DHT22;4618;48.818;9.088;2023-04-06T21:15:57;8.50;1.00
9167;DHT22;4618;48.818;9.088;2023-04-06T21:18:23;8.40;1.00
9167;DHT22;4618;48.818;9.088;2023-04-06T21:20:49;8.30;1.00
9167;DHT22;4618;48.818;9.088;2023-04-06T21:23:15;8.30;1.00
9167;DHT22;4618;48.818;9.088;2023-04-06T21:25:41;8.30;1.00
9167;DHT22;4618;48.818;9.088;2023-04-06T21:28:06;8.20;1.00
9167;DHT22;4618;48.818;9.088;2023-04-06T21:30:32;8.20;1.00
9167;DHT22;4618;48.818;9.088;2023-04-06T21:33:04;8.10;1.00
9167;DHT22;4618;48.818;9.088;2023-04-06T21:35:30;8.10;1.00
9167;DHT22;4618;48.818;9.088;2023-04-06T21:37:56;7.90;1.00
9167;DHT22;4618;48.818;9.088;2023-04-06T21:40:22;7.80;5.60
9167;DHT22;4618;48.818;9.088;2023-04-06T21:42:47;7.60;99.90
9167;DHT22;4618;48.818;9.088;2023-04-06T21:45:13;7.30;1.00
9167;DHT22;4618;48.818;9.088;2023-04-06T21:47:38;7.10;38.50
9167;DHT22;4618;48.818;9.088;2023-04-06T21:50:04;6.90;99.90
9167;DHT22;4618;48.818;9.088;2023-04-06T21:52:30;6.80;1.00
9167;DHT22;4618;48.818;9.088;2023-04-06T21:54:55;6.60;1.00
9167;DHT22;4618;48.818;9.088;2023-04-06T21:57:21;6.60;99.90
9167;DHT22;4618;48.818;9.088;2023-04-06T21:59:47;6.50;1.00
9167;DHT22;4618;48.818;9.088;2023-04-06T22:02:12;6.40;99.90
9167;DHT22;4618;48.818;9.088;2023-04-06T22:04:38;6.30;1.00
9167;DHT22;4618;48.818;9.088;2023-04-06T22:07:03;6.20;1.00
9167;DHT22;4618;48.818;9.088;2023-04-06T22:09:30;6.20;1.00
9167;DHT22;4618;48.818;9.088;2023-04-06T22:11:56;6.10;99.90
9167;DHT22;4618;48.818;9.088;2023-04-06T22:14:21;6.10;99.90
9167;DHT22;4618;48.818;9.088;2023-04-06T22:16:47;6.20;99.90
9167;DHT22;4618;48.818;9.088;2023-04-06T22:19:12;6.20;99.90
9167;DHT22;4618;48.818;9.088;2023-04-06T22:21:38;6.10;99.90
9167;DHT22;4618;48.818;9.088;2023-04-06T22:24:04;6.10;1.00
9167;DHT22;4618;48.818;9.088;2023-04-06T22:26:30;6.10;1.00
9167;DHT22;4618;48.818;9.088;2023-04-06T22:28:56;6.10;99.90
9167;DHT22;4618;48.818;9.088;2023-04-06T22:31:21;6.10;99.90
9167;DHT22;4618;48.818;9.088;2023-04-06T22:33:47;6.00;99.90
9167;DHT22;4618;48.818;9.088;2023-04-06T22:36:12;6.00;1.00
9167;DHT22;4618;48.818;9.088;2023-04-06T22:38:38;6.00;1.00
9167;DHT22;4618;48.818;9.088;2023-04-06T22:41:03;6.00;1.00
9167;DHT22;4618;48.818;9.088;2023-04-06T22:43:29;6.00;1.00
9167;DHT22;4618;48.818;9.088;2023-04-06T22:45:54;6.00;1.00
9167;DHT22;4618;48.818;9.088;2023-04-06T22:48:20;5.90;42.10
9167;DHT22;4618;48.818;9.088;2023-04-06T22:50:46;5.90;99.90
9167;DHT22;4618;48.818;9.088;2023-04-06T22:53:12;5.80;99.90
9167;DHT22;4618;48.818;9.088;2023-04-06T22:55:40;5.80;99.90
9167;DHT22;4618;48.818;9.088;2023-04-06T22:58:06;5.80;99.90
9167;DHT22;4618;48.818;9.088;2023-04-06T23:00:32;5.80;99.90
9167;DHT22;4618;48.818;9.088;2023-04-06T23:02:58;5.80;1.00
9167;DHT22;4618;48.818;9.088;2023-04-06T23:05:23;5.90;1.00
9167;DHT22;4618;48.818;9.088;2023-04-06T23:07:49;5.90;1.00
9167;DHT22;4618;48.818;9.088;2023-04-06T23:10:16;5.80;1.00
9167;DHT22;4618;48.818;9.088;2023-04-06T23:12:42;5.80;1.00
9167;DHT22;4618;48.818;9.088;2023-04-06T23:15:08;5.80;1.00
9167;DHT22;4618;48.818;9.088;2023-04-06T23:17:34;5.80;1.00
9167;DHT22;4618;48.818;9.088;2023-04-06T23:20:00;5.70;67.80